Time;durP1;ratioP1;P1;durP2;ratioP2;P2;SDS_P1;SDS_P2;PMS_P1;PMS_P2;Temp;Humidity;BMP_temperature;BMP_pressure;BME280_temperature;BME280_humidity;BME280_pressure;Samples;Min_cycle;Max_cycle;Signal;HPM_P1;HPM_P2
2023/08/31 07:23:29;;;;;;;14.05;8.82;;;;;;;-145.79;98.01;77216.19;5232562;27;1968391;-75
2023/08/31 07:26:01;;;;;;;7.68;6.88;;;;;;;-145.79;98.21;77203.47;5280843;28;20183;-76
2023/08/31 07:28:32;;;;;;;8.73;6.60;;;;;;;-145.79;98.31;77197.09;5280763;28;20029;-78
2023/08/31 07:31:06;;;;;;;7.63;6.93;;;;;;;-145.79;97.54;77188.63;5272784;28;20033;-77
2023/08/31 07:33:37;;;;;;;11.13;7.60;;;;;;;-145.79;97.16;77165.31;5279032;28;20044;-77
2023/08/31 07:36:09;;;;;;;8.73;6.75;;;;;;;-145.79;96.44;77152.59;5271579;28;20471;-77
2023/08/31 07:38:40;;;;;;;6.40;5.75;;;;;;;-145.79;95.42;77146.25;5278939;28;20028;-75
2023/08/31 07:41:12;;;;;;;7.38;5.72;;;;;;;-145.79;95.55;77148.34;5280015;28;20025;-76
2023/08/31 07:43:43;;;;;;;6.68;5.45;;;;;;;-145.79;95.02;77129.28;5279585;28;20028;-75
2023/08/31 07:46:18;;;;;;;7.82;7.03;;;;;;;-145.79;95.13;77118.69;5275500;28;20029;-75
2023/08/31 07:48:50;;;;;;;19.05;17.02;;;;;;;-145.79;95.03;77110.22;5279310;28;20032;-74
2023/08/31 07:51:23;;;;;;;8.82;6.47;;;;;;;-145.79;94.96;77105.97;5280048;28;20024;-76
2023/08/31 07:53:54;;;;;;;7.32;5.93;;;;;;;-145.79;94.90;77097.50;5278462;28;20032;-76
2023/08/31 07:56:25;;;;;;;9.25;5.45;;;;;;;-145.79;94.17;77078.41;5279301;28;20036;-76
2023/08/31 07:58:56;;;;;;;7.07;4.55;;;;;;;-145.79;93.03;77040.25;5278937;28;20043;-75
2023/08/31 08:01:28;;;;;;;6.82;5.35;;;;;;;-145.79;92.11;77044.50;5278433;28;20025;-75
2023/08/31 08:04:02;;;;;;;9.15;5.55;;;;;;;-145.79;91.89;77031.78;5278082;28;20017;-76
2023/08/31 08:06:34;;;;;;;4.53;4.13;;;;;;;-145.79;91.12;76995.75;5278789;28;20016;-75
2023/08/31 08:09:05;;;;;;;6.63;5.22;;;;;;;-145.79;90.68;77016.94;5278905;28;20021;-76
2023/08/31 08:11:37;;;;;;;7.18;6.47;;;;;;;-145.79;90.71;77008.47;5278386;28;20125;-76
2023/08/31 08:14:08;;;;;;;6.95;4.72;;;;;;;-145.79;90.55;76995.75;5278366;28;20138;-76
2023/08/31 08:16:39;;;;;;;7.78;5.50;;;;;;;-145.79;91.01;77006.34;5278865;28;20031;-76
2023/08/31 08:19:11;;;;;;;7.18;5.95;;;;;;;-145.79;90.94;77000.00;5278472;28;20081;-76
2023/08/31 08:21:42;;;;;;;7.53;5.68;;;;;;;-145.79;90.13;76995.75;5269651;28;20039;-72
2023/08/31 08:24:16;;;;;;;8.32;6.22;;;;;;;-145.79;90.42;76991.53;5278249;28;20028;-72
2023/08/31 08:26:47;;;;;;;14.98;10.48;;;;;;;-145.79;90.45;76991.53;5278554;28;20096;-75
2023/08/31 08:29:19;;;;;;;7.32;5.97;;;;;;;-145.79;90.03;76983.03;5277923;28;20067;-75
2023/08/31 08:31:50;;;;;;;7.97;5.68;;;;;;;-145.79;90.13;76974.56;5270595;28;20064;-76
2023/08/31 08:34:21;;;;;;;9.02;4.97;;;;;;;-145.79;89.55;76947.00;5267543;28;20063;-76
2023/08/31 08:36:53;;;;;;;6.68;5.20;;;;;;;-145.79;88.02;76940.66;5258321;28;20522;-76
2023/08/31 08:39:24;;;;;;;6.60;5.25;;;;;;;-145.79;86.59;76925.81;5265151;28;20029;-77
2023/08/31 08:41:58;;;;;;;7.78;6.05;;;;;;;-145.79;86.20;76921.59;5264645;28;20033;-78
2023/08/31 08:44:33;;;;;;;8.18;5.88;;;;;;;-145.79;86.31;76915.22;5256665;28;20030;-79
2023/08/31 08:47:07;;;;;;;8.02;5.80;;;;;;;-145.79;85.81;76906.75;5264500;28;20025;-79
2023/08/31 08:49:38;;;;;;;8.75;5.45;;;;;;;-145.79;86.17;76885.56;5265260;28;20055;-78
2023/08/31 08:52:14;;;;;;;6.78;5.97;;;;;;;-145.79;86.66;76883.44;5267664;28;20115;-84
2023/08/31 08:54:46;;;;;;;6.15;4.97;;;;;;;-145.79;84.67;76860.13;5266148;28;20025;-84
2023/08/31 08:57:18;;;;;;;9.48;5.35;;;;;;;-145.79;84.05;76855.88;5265868;28;20045;-79
2023/08/31 08:59:49;;;;;;;7.78;5.28;;;;;;;-145.79;84.15;76860.13;5265446;28;20104;-80
2023/08/31 09:02:20;;;;;;;7.05;5.28;;;;;;;-145.79;84.46;76881.31;5265220;28;20063;-79
2023/08/31 09:04:54;;;;;;;5.78;4.68;;;;;;;-145.79;83.75;76883.44;5265626;28;20123;-83
2023/08/31 09:07:30;;;;;;;8.75;6.07;;;;;;;-145.79;84.17;76879.19;5265341;28;20028;-75
2023/08/31 09:10:01;;;;;;;;;;;;;;;-145.79;84.76;76868.59;5263845;28;20056;-74
2023/08/31 09:12:36;;;;;;;6.95;4.80;;;;;;;-145.79;84.12;76874.94;5258196;28;19917;-79
2023/08/31 09:15:07;;;;;;;8.07;4.63;;;;;;;-145.79;84.66;76866.47;5261447;28;20029;-77
2023/08/31 09:17:43;;;;;;;8.10;5.35;;;;;;;-145.79;83.50;76877.06;5261867;28;20094;-77
2023/08/31 09:20:14;;;;;;;8.68;5.10;;;;;;;-145.79;83.36;76877.06;5253690;28;20040;-78
2023/08/31 09:22:48;;;;;;;6.55;4.78;;;;;;;-145.79;83.74;76868.59;5263548;28;20053;-77
2023/08/31 09:25:20;;;;;;;9.77;5.10;;;;;;;-145.79;82.59;76855.88;5261174;28;20017;-78
2023/08/31 09:27:52;;;;;;;5.03;4.53;;;;;;;-145.79;81.55;76838.94;5264009;28;20495;-78
2023/08/31 09:30:26;;;;;;;5.85;4.30;;;;;;;-145.79;81.13;76824.09;5263262;28;20030;-77
2023/08/31 09:32:57;;;;;;;5.93;3.97;;;;;;;-145.79;81.28;76830.44;5259507;28;20045;-79
2023/08/31 09:35:29;;;;;;;6.28;4.03;;;;;;;-145.79;81.26;76830.44;5258391;28;20029;-78
2023/08/31 09:38:02;;;;;;;8.55;6.43;;;;;;;-145.79;80.89;76824.09;5262493;28;20476;-79
2023/08/31 09:40:33;;;;;;;6.00;4.88;;;;;;;-145.79;81.42;76843.16;5264389;28;20032;-81
2023/08/31 09:43:04;;;;;;;8.48;4.75;;;;;;;-145.79;81.07;76809.25;5263467;28;20021;-79
2023/08/31 09:45:37;;;;;;;6.18;4.13;;;;;;;-145.79;79.63;76788.06;5249502;28;20021;-79
2023/08/31 09:48:09;;;;;;;7.90;4.20;;;;;;;-145.79;79.55;76792.31;5262126;28;20021;-78
2023/08/31 09:50:43;;;;;;;7.45;4.22;;;;;;;-145.79;79.67;76783.81;5262044;28;20119;-78
2023/08/31 09:53:16;;;;;;;4.40;3.88;;;;;;;-145.79;76.73;76792.31;5262746;28;20427;-78
2023/08/31 09:55:51;;;;;;;6.22;3.40;;;;;;;-145.79;76.02;76783.81;5257065;28;20498;-78
2023/08/31 09:58:24;;;;;;;6.75;3.33;;;;;;;-145.79;76.59;76785.94;5258375;28;20120;-79
2023/08/31 10:00:55;;;;;;;5.78;4.10;;;;;;;-145.79;75.79;76796.53;5262318;28;20047;-73
2023/08/31 10:03:27;;;;;;;26.05;22.48;;;;;;;-145.79;75.52;76762.63;5257661;28;20033;-80
2023/08/31 10:05:58;;;;;;;7.50;4.07;;;;;;;-145.79;74.09;76754.16;5263118;28;20024;-72
2023/08/31 10:08:31;;;;;;;6.82;4.03;;;;;;;-145.79;73.10;76754.16;5262821;28;20516;-75
2023/08/31 10:11:10;;;;;;;7.35;3.58;;;;;;;-145.79;73.04;76762.63;5262646;28;20111;-76
2023/08/31 10:13:42;;;;;;;6.30;3.42;;;;;;;-145.79;71.68;76779.59;5262254;28;20025;-75
2023/08/31 10:16:15;;;;;;;6.05;3.40;;;;;;;-145.79;72.73;76785.94;5262769;28;20033;-74
2023/08/31 10:18:47;;;;;;;6.47;3.35;;;;;;;-145.79;72.19;76773.22;5261768;28;20028;-74
2023/08/31 10:21:19;;;;;;;6.68;3.58;;;;;;;-145.79;69.39;76785.94;5261423;28;20031;-75
2023/08/31 10:23:51;;;;;;;3.70;3.00;;;;;;;-145.79;70.97;76773.22;5262045;28;20064;-75
2023/08/31 10:26:28;;;;;;;3.95;2.53;;;;;;;-145.79;70.68;76752.03;5262384;28;20064;-76
2023/08/31 10:29:04;;;;;;;5.93;2.90;;;;;;;-145.79;70.39;76758.38;5245004;28;20031;-75
2023/08/31 10:31:35;;;;;;;2.78;2.58;;;;;;;-145.79;68.10;76754.16;5261843;28;20357;-74
2023/08/31 10:34:09;;;;;;;3.50;2.42;;;;;;;-145.79;68.50;76754.16;5261648;28;20039;-74
2023/08/31 10:36:45;;;;;;;4.30;2.95;;;;;;;-145.79;68.36;76754.16;5259887;28;20029;-74
2023/08/31 10:39:19;;;;;;;7.03;2.70;;;;;;;-145.79;68.35;76756.28;5261939;28;20503;-72
2023/08/31 10:41:55;;;;;;;4.53;2.60;;;;;;;-145.79;67.39;76760.50;5261030;28;20036;-73
2023/08/31 10:44:30;;;;;;;4.43;2.90;;;;;;;-145.79;66.77;76747.78;5262079;28;20459;-73
2023/08/31 10:47:04;;;;;;;4.13;2.55;;;;;;;-145.79;67.20;76724.47;5261724;28;20101;-73
2023/08/31 10:49:37;;;;;;;3.63;3.15;;;;;;;-145.79;66.20;76720.25;5261355;28;20083;-73
2023/08/31 10:52:20;;;;;;;3.38;2.50;;;;;;;-145.79;66.50;76690.56;5259617;28;20519;-73
2023/08/31 10:54:55;;;;;;;8.45;2.75;;;;;;;-145.79;65.47;76682.09;5261414;28;20024;-73
2023/08/31 10:57:33;;;;;;;11.65;9.38;;;;;;;-145.79;65.22;76665.16;5260628;28;20021;-74
2023/08/31 11:00:05;;;;;;;6.90;2.70;;;;;;;-145.79;63.70;76648.19;5261691;28;20043;-73
2023/08/31 11:02:37;;;;;;;3.38;1.98;;;;;;;-145.79;62.76;76635.47;5260649;28;20112;-75
2023/08/31 11:05:14;;;;;;;3.22;2.47;;;;;;;-145.79;62.44;76633.34;5261628;28;20053;-75
2023/08/31 11:07:50;;;;;;;8.00;2.42;;;;;;;-145.79;61.57;76635.47;5261323;28;20171;-75
2023/08/31 11:10:27;;;;;;;4.57;2.70;;;;;;;-145.79;62.07;76650.31;5254046;28;20447;-74
2023/08/31 11:12:58;;;;;;;4.47;2.05;;;;;;;-145.79;61.83;76665.16;5261417;28;20404;-74
2023/08/31 11:15:32;;;;;;;7.80;3.30;;;;;;;-145.79;62.35;76690.56;5261380;28;20033;-74
2023/08/31 11:18:05;;;;;;;5.28;2.45;;;;;;;-145.79;63.62;76688.44;5260658;28;20025;-75
2023/08/31 11:20:36;;;;;;;4.68;2.30;;;;;;;-145.79;63.88;76699.06;5261549;28;20403;-74
2023/08/31 11:23:08;;;;;;;5.07;2.72;;;;;;;-145.79;63.34;76703.28;5261175;28;20102;-74
2023/08/31 11:25:39;;;;;;;4.22;3.28;;;;;;;-145.79;63.57;76686.34;5260989;28;20056;-74
2023/08/31 11:28:11;;;;;;;4.55;2.40;;;;;;;-145.79;63.78;76648.19;5260486;28;20017;-75
2023/08/31 11:30:44;;;;;;;5.35;3.17;;;;;;;-145.79;62.97;76643.94;5260904;28;20559;-74
2023/08/31 11:33:15;;;;;;;3.35;2.20;;;;;;;-145.79;64.32;76607.91;5261513;28;20104;-75
2023/08/31 11:35:47;;;;;;;4.30;2.50;;;;;;;-145.79;63.98;76627.00;5261125;28;20109;-74
2023/08/31 11:38:19;;;;;;;5.70;2.72;;;;;;;-145.79;64.31;76605.81;5260457;28;20029;-74
2023/08/31 11:40:55;;;;;;;3.45;2.67;;;;;;;-145.79;64.01;76631.22;5261476;28;20380;-75
2023/08/31 11:43:27;;;;;;;4.47;2.63;;;;;;;-145.79;64.76;76618.53;5260316;28;20041;-75
2023/08/31 11:45:59;;;;;;;4.80;2.75;;;;;;;-145.79;63.27;76624.88;5258629;28;20380;-74
2023/08/31 11:48:32;;;;;;;4.32;2.60;;;;;;;-145.79;63.17;76612.16;5261324;28;20375;-75
2023/08/31 11:51:04;;;;;;;4.32;2.50;;;;;;;-145.79;61.91;76584.59;5260926;28;20029;-75
2023/08/31 11:53:35;;;;;;;4.07;3.00;;;;;;;-145.79;61.42;76567.66;5254315;28;20041;-76
2023/08/31 11:56:09;;;;;;;4.47;2.30;;;;;;;-145.79;59.25;76559.19;5254732;28;20021;-76
2023/08/31 11:58:45;;;;;;;6.25;2.47;;;;;;;-145.79;58.64;76546.47;5259393;28;20052;-76
2023/08/31 12:01:21;;;;;;;4.60;2.55;;;;;;;-145.79;57.42;76559.19;5252262;28;20196;-74
2023/08/31 12:03:55;;;;;;;;;;;;;;;-145.79;58.53;76554.94;5260498;28;20423;-75
2023/08/31 12:06:26;;;;;;;5.78;2.70;;;;;;;-145.79;57.57;76588.84;5252277;28;19924;-72
2023/08/31 12:08:58;;;;;;;7.57;2.60;;;;;;;-145.79;59.42;76597.31;5260483;28;20032;-79
2023/08/31 12:11:29;;;;;;;3.80;2.47;;;;;;;-145.79;62.59;76607.91;5258362;28;20112;-78
2023/08/31 12:14:04;;;;;;;5.38;2.50;;;;;;;-145.79;63.78;76635.47;5255823;28;20129;-78
2023/08/31 12:16:36;;;;;;;4.77;2.87;;;;;;;-145.79;64.82;76679.97;5265229;28;20032;-77
2023/08/31 12:19:09;;;;;;;4.75;3.47;;;;;;;-145.79;69.66;76707.53;5257325;28;20078;-77
2023/08/31 12:21:46;;;;;;;7.18;3.55;;;;;;;-145.79;74.87;76739.31;5263481;28;20032;-74
2023/08/31 12:24:19;;;;;;;7.50;3.85;;;;;;;-145.79;76.39;76771.09;5262827;28;20029;-73
2023/08/31 12:26:50;;;;;;;11.55;9.82;;;;;;;-145.79;78.15;76769.00;5262556;28;20071;-76
2023/08/31 12:29:22;;;;;;;92.30;84.05;;;;;;;-145.79;80.30;76800.78;5264632;28;20025;-73
2023/08/31 12:31:53;;;;;;;7.18;6.28;;;;;;;-145.79;78.86;76788.06;5264532;28;20392;-74
2023/08/31 12:34:26;;;;;;;7.75;4.70;;;;;;;-145.79;80.72;76826.22;5263775;28;20480;-72
2023/08/31 12:37:01;;;;;;;5.93;5.05;;;;;;;-145.79;82.48;76815.63;5263889;28;21624;-73
2023/08/31 12:39:32;;;;;;;6.88;5.78;;;;;;;-145.79;84.47;76832.56;5264878;28;20025;-74
2023/08/31 12:42:04;;;;;;;8.02;4.65;;;;;;;-145.79;83.97;76872.84;5264054;28;20157;-73
2023/08/31 12:44:37;;;;;;;6.10;5.18;;;;;;;-145.79;86.94;76868.59;5249425;28;20029;-74
2023/08/31 12:47:08;;;;;;;5.50;4.43;;;;;;;-145.79;88.28;76877.06;5259813;28;20032;-74
2023/08/31 12:49:40;;;;;;;5.78;4.53;;;;;;;-145.79;88.58;76887.66;5261603;28;20029;-73
2023/08/31 12:52:11;;;;;;;6.80;4.40;;;;;;;-145.79;88.34;76889.78;5245503;28;20036;-75
2023/08/31 12:54:42;;;;;;;7.85;4.68;;;;;;;-145.79;87.44;76898.25;5263939;28;20108;-74
2023/08/31 12:57:14;;;;;;;6.57;5.07;;;;;;;-145.79;88.39;76900.38;5263094;28;20421;-73
2023/08/31 12:59:45;;;;;;;8.77;6.05;;;;;;;-145.79;88.84;76923.69;5263313;28;20457;-74
2023/08/31 13:02:17;;;;;;;7.93;5.03;;;;;;;-145.79;87.81;76925.81;5261720;28;20078;-73
2023/08/31 13:04:49;;;;;;;7.93;5.32;;;;;;;-145.79;88.42;76921.59;5262928;28;20537;-74
2023/08/31 13:07:21;;;;;;;5.80;5.30;;;;;;;-145.79;87.54;76947.00;5256122;28;20453;-74
2023/08/31 13:09:52;;;;;;;10.43;9.40;;;;;;;-145.79;87.31;76961.84;5261393;28;20036;-75
2023/08/31 13:12:23;;;;;;;11.77;9.70;;;;;;;-145.79;89.34;76974.56;5263750;28;20422;-75
2023/08/31 13:14:55;;;;;;;6.43;5.15;;;;;;;-145.79;88.56;76974.56;5263848;28;20025;-74
2023/08/31 13:17:27;;;;;;;8.38;5.65;;;;;;;-145.79;89.53;76966.09;5249751;28;20025;-74
2023/08/31 13:19:59;;;;;;;5.57;5.07;;;;;;;-145.79;89.24;76972.44;5258110;28;20082;-74
2023/08/31 13:22:30;;;;;;;7.32;6.60;;;;;;;-145.79;92.10;76957.59;5257501;28;20041;-74
2023/08/31 13:25:02;;;;;;;8.65;5.60;;;;;;;-145.79;90.06;76959.72;5259516;28;20075;-74
2023/08/31 13:27:37;;;;;;;6.70;6.10;;;;;;;-145.79;90.57;76957.59;5265369;28;20024;-75
2023/08/31 13:30:12;;;;;;;8.13;6.32;;;;;;;-145.79;92.25;76940.66;5262758;28;20360;-74
2023/08/31 13:32:44;;;;;;;6.28;5.70;;;;;;;-145.79;92.05;76927.94;5263890;28;20523;-75
2023/08/31 13:35:18;;;;;;;6.82;5.97;;;;;;;-145.79;91.42;76923.69;5258075;28;20108;-76
2023/08/31 13:37:49;;;;;;;6.60;5.15;;;;;;;-145.79;88.40;76934.28;5262510;28;20044;-76
2023/08/31 13:40:20;;;;;;;8.85;5.50;;;;;;;-145.79;89.58;76881.31;5263351;28;20040;-75
2023/08/31 13:42:59;;;;;;;10.15;5.93;;;;;;;-145.79;86.83;76881.31;5260156;28;20025;-75
2023/08/31 13:45:31;;;;;;;9.68;7.57;;;;;;;-145.79;87.69;76860.13;5262610;28;20032;-75
2023/08/31 13:48:04;;;;;;;6.68;5.90;;;;;;;-145.79;85.29;76845.28;5262925;28;20108;-76
2023/08/31 13:50:35;;;;;;;7.85;5.38;;;;;;;-145.79;87.04;76819.84;5262947;28;20044;-73
2023/08/31 13:53:06;;;;;;;7.28;5.70;;;;;;;-145.79;86.17;76826.22;5262388;28;20492;-71
2023/08/31 13:55:38;;;;;;;8.43;5.45;;;;;;;-145.79;85.52;76824.09;5254252;28;20025;-73
2023/08/31 13:58:09;;;;;;;7.15;5.80;;;;;;;-145.79;85.69;76824.09;5249048;28;20368;-73
2023/08/31 14:00:49;;;;;;;6.13;5.60;;;;;;;-145.79;87.18;76815.63;5257862;28;20094;-72
2023/08/31 14:03:21;;;;;;;7.45;5.88;;;;;;;-145.79;86.47;76815.63;5262726;28;20033;-72
2023/08/31 14:05:52;;;;;;;5.45;4.95;;;;;;;-145.79;86.92;76798.66;5262249;28;20046;-74
2023/08/31 14:08:23;;;;;;;27.58;24.83;;;;;;;-145.79;85.46;76813.50;5262502;28;20021;-70
2023/08/31 14:10:57;;;;;;;6.82;6.18;;;;;;;-145.79;86.28;76794.41;5257633;28;20026;-71
2023/08/31 14:13:29;;;;;;;6.95;6.07;;;;;;;-145.79;87.16;76796.53;5251417;28;20122;-76
2023/08/31 14:16:01;;;;;;;7.47;6.70;;;;;;;-145.79;87.45;76805.00;5259232;28;20056;-76
2023/08/31 14:18:32;;;;;;;5.68;5.10;;;;;;;-145.79;86.73;76792.31;5253095;28;20074;-76
2023/08/31 14:21:03;;;;;;;6.65;6.00;;;;;;;-145.79;86.30;76788.06;5254294;28;20136;-77
2023/08/31 14:23:34;;;;;;;6.15;5.43;;;;;;;-145.79;86.38;76788.06;5251139;28;20051;-76
2023/08/31 14:26:06;;;;;;;8.05;6.03;;;;;;;-145.79;88.29;76771.09;5262359;28;20029;-75
2023/08/31 14:28:37;;;;;;;6.50;5.90;;;;;;;-145.79;87.60;76754.16;5261287;28;20025;-75
2023/08/31 14:31:08;;;;;;;7.43;6.82;;;;;;;-145.79;87.07;76749.91;5262069;28;20021;-75
2023/08/31 14:33:40;;;;;;;8.23;7.47;;;;;;;-145.79;88.17;76749.91;5259666;28;20361;-76
2023/08/31 14:36:14;;;;;;;6.85;5.68;;;;;;;-145.79;87.52;76754.16;5262842;28;20465;-76
2023/08/31 14:38:45;;;;;;;6.60;5.30;;;;;;;-145.79;86.38;76743.56;5262511;28;20380;-78
2023/08/31 14:41:17;;;;;;;6.93;6.07;;;;;;;-145.79;85.68;76730.84;5261511;28;20033;-78
2023/08/31 14:43:48;;;;;;;6.45;5.78;;;;;;;-145.79;84.43;76728.72;5258760;28;20013;-77
2023/08/31 14:46:24;;;;;;;6.88;6.05;;;;;;;-145.79;83.97;76707.53;5244318;28;20492;-76
2023/08/31 14:48:57;;;;;;;6.93;6.22;;;;;;;-145.79;84.45;76707.53;5261542;28;20017;-78
2023/08/31 14:51:31;;;;;;;5.97;5.43;;;;;;;-145.79;83.71;76694.81;5257931;28;20050;-75
2023/08/31 14:54:02;;;;;;;8.38;6.10;;;;;;;-145.79;83.87;76703.28;5261992;28;20480;-73
2023/08/31 14:56:34;;;;;;;7.85;6.00;;;;;;;-145.79;83.99;76701.16;5261150;28;20055;-73
2023/08/31 14:59:05;;;;;;;7.65;6.63;;;;;;;-145.79;83.52;76711.75;5261781;28;20031;-73
2023/08/31 15:01:37;;;;;;;9.85;7.00;;;;;;;-145.79;82.42;76720.25;5260927;28;20029;-73
2023/08/31 15:04:08;;;;;;;8.02;5.85;;;;;;;-145.79;82.80;76720.25;5260445;28;20021;-74
2023/08/31 15:06:42;;;;;;;6.85;6.03;;;;;;;-145.79;81.63;76722.34;5258169;28;20109;-74
2023/08/31 15:09:17;;;;;;;8.50;5.82;;;;;;;-145.79;82.32;76741.44;5254071;28;20074;-74
2023/08/31 15:11:48;;;;;;;7.30;6.22;;;;;;;-145.79;83.13;76745.69;5261647;28;20554;-72
2023/08/31 15:14:20;;;;;;;9.55;7.00;;;;;;;-145.79;83.89;76754.16;5261258;28;20052;-75
2023/08/31 15:16:51;;;;;;;12.50;7.90;;;;;;;-145.79;86.94;76769.00;5261462;28;20025;-77
2023/08/31 15:19:22;;;;;;;8.73;6.90;;;;;;;-145.79;86.29;76769.00;5261949;28;20166;-74
2023/08/31 15:21:54;;;;;;;10.07;7.03;;;;;;;-145.79;86.81;76779.59;5261452;28;20053;-73
2023/08/31 15:24:25;;;;;;;7.00;6.18;;;;;;;-145.79;86.84;76777.47;5259915;28;20033;-73
2023/08/31 15:26:58;;;;;;;7.38;5.97;;;;;;;-145.79;87.11;76788.06;5261002;28;20025;-75
2023/08/31 15:29:31;;;;;;;6.30;5.70;;;;;;;-145.79;87.55;76777.47;5261402;28;20029;-75
2023/08/31 15:32:02;;;;;;;9.38;6.72;;;;;;;-145.79;89.84;76788.06;5255279;28;20090;-74
2023/08/31 15:34:34;;;;;;;7.35;6.65;;;;;;;-145.79;89.29;76792.31;5261578;28;20119;-79
2023/08/31 15:37:05;;;;;;;9.43;8.43;;;;;;;-145.79;90.51;76790.19;5256626;28;20020;-77
2023/08/31 15:39:36;;;;;;;8.50;6.80;;;;;;;-145.79;89.33;76794.41;5245112;28;20037;-75
2023/08/31 15:42:08;;;;;;;8.23;6.30;;;;;;;-145.79;87.89;76794.41;5257602;28;20031;-73
2023/08/31 15:44:41;;;;;;;6.72;5.65;;;;;;;-145.79;87.44;76756.28;5255721;28;20025;-74
2023/08/31 15:47:12;;;;;;;8.02;7.22;;;;;;;-145.79;88.01;76769.00;5262796;28;20475;-75
2023/08/31 15:49:44;;;;;;;9.45;6.47;;;;;;;-145.79;87.66;76754.16;5255616;28;20061;-75
2023/08/31 15:52:15;;;;;;;8.52;6.78;;;;;;;-145.79;86.60;76771.09;5246415;28;20044;-73
2023/08/31 15:54:47;;;;;;;7.47;6.43;;;;;;;-145.79;87.86;76758.38;5264317;28;20097;-72
2023/08/31 15:57:18;;;;;;;6.53;5.72;;;;;;;-145.79;86.02;76760.50;5264244;28;20032;-72
2023/08/31 15:59:49;;;;;;;11.25;6.97;;;;;;;-145.79;85.98;76754.16;5257592;28;20072;-72
2023/08/31 16:02:21;;;;;;;6.80;6.10;;;;;;;-145.79;85.55;76758.38;5264109;28;20400;-72
2023/08/31 16:04:53;;;;;;;8.68;5.45;;;;;;;-145.79;86.54;76762.63;5263515;28;20096;-71
2023/08/31 16:07:25;;;;;;;8.90;6.03;;;;;;;-145.79;86.73;76771.09;5264608;28;20079;-72
2023/08/31 16:09:56;;;;;;;7.38;5.20;;;;;;;-145.79;87.13;76758.38;5263861;28;20037;-73
2023/08/31 16:12:27;;;;;;;6.10;5.50;;;;;;;-145.79;86.91;76760.50;5264058;28;20159;-73
2023/08/31 16:14:59;;;;;;;5.28;4.68;;;;;;;-145.79;86.41;76749.91;5264213;28;20183;-73
2023/08/31 16:17:30;;;;;;;7.53;6.15;;;;;;;-145.79;86.99;76741.44;5264083;28;20082;-73
2023/08/31 16:20:01;;;;;;;7.72;5.07;;;;;;;-145.79;85.58;76741.44;5250262;28;20025;-73
2023/08/31 16:22:33;;;;;;;5.15;4.45;;;;;;;-145.79;83.47;76743.56;5253108;28;20049;-73
2023/08/31 16:25:05;;;;;;;8.57;5.95;;;;;;;-145.79;84.88;76747.78;5254827;28;20373;-73
2023/08/31 16:27:36;;;;;;;6.68;4.30;;;;;;;-145.79;84.27;76758.38;5260257;28;20079;-74
2023/08/31 16:30:09;;;;;;;6.78;4.75;;;;;;;-145.79;83.70;76754.16;5264423;28;20025;-73
2023/08/31 16:32:41;;;;;;;7.68;4.90;;;;;;;-145.79;83.12;76754.16;5262752;28;20057;-73
2023/08/31 16:35:16;;;;;;;5.82;4.20;;;;;;;-145.79;84.12;76752.03;5263400;28;20025;-72
2023/08/31 16:37:48;;;;;;;5.40;4.22;;;;;;;-145.79;84.26;76762.63;5264634;28;20032;-74
2023/08/31 16:40:20;;;;;;;5.80;4.28;;;;;;;-145.79;84.05;76771.09;5258984;28;20150;-74
2023/08/31 16:42:51;;;;;;;7.10;5.10;;;;;;;-145.79;85.74;76775.34;5264494;28;20029;-73
2023/08/31 16:45:23;;;;;;;7.13;4.97;;;;;;;-145.79;85.98;76779.59;5264064;28;20128;-73
2023/08/31 16:47:55;;;;;;;5.30;4.60;;;;;;;-145.79;86.82;76785.94;5258281;28;20476;-73
2023/08/31 16:50:30;;;;;;;9.00;5.07;;;;;;;-145.79;86.67;76781.69;5259822;28;20031;-73
2023/08/31 16:53:06;;;;;;;6.60;5.10;;;;;;;-145.79;87.40;76783.81;5264160;28;20023;-73
2023/08/31 16:55:41;;;;;;;8.68;5.05;;;;;;;-145.79;86.17;76775.34;5262116;28;20128;-74
